Time;durP1;ratioP1;P1;durP2;ratioP2;P2;SDS_P1;SDS_P2;PMS_P1;PMS_P2;Temp;Humidity;BMP_temperature;BMP_pressure;BME280_temperature;BME280_humidity;BME280_pressure;Samples;Min_cycle;Max_cycle;Signal;HPM_P1;HPM_P2
2022/09/02 00:01:55;;;;;;;7.25;5.90;;;;;;;11.06;100.00;97418.78;5047832;28;20044;-63
2022/09/02 00:04:25;;;;;;;8.43;6.28;;;;;;;10.88;100.00;97428.84;5057222;28;20040;-62
2022/09/02 00:06:53;;;;;;;7.85;6.50;;;;;;;10.99;100.00;97412.72;5067414;28;20098;-63
2022/09/02 00:09:22;;;;;;;8.73;6.28;;;;;;;11.01;100.00;97407.84;5058736;28;20480;-63
2022/09/02 00:11:50;;;;;;;11.48;6.20;;;;;;;11.02;100.00;97412.22;5047589;28;20052;-62
2022/09/02 00:14:25;;;;;;;7.70;6.22;;;;;;;10.89;100.00;97416.97;5047548;28;20040;-62
2022/09/02 00:16:52;;;;;;;7.80;5.82;;;;;;;10.88;100.00;97409.88;5067619;28;20466;-63
2022/09/02 00:19:23;;;;;;;7.45;5.65;;;;;;;10.86;100.00;97408.50;5059156;28;20049;-62
2022/09/02 00:21:51;;;;;;;;;;;;;;;10.79;100.00;97404.09;5048072;28;20384;-63
2022/09/02 00:24:17;;;;;;;8.70;6.20;;;;;;;10.66;100.00;97405.28;5047741;28;19924;-62
2022/09/02 00:26:45;;;;;;;9.50;6.40;;;;;;;10.61;100.00;97407.94;5047054;28;20044;-63
2022/09/02 00:29:13;;;;;;;9.02;6.10;;;;;;;10.62;100.00;97408.75;5047413;28;20460;-62
2022/09/02 00:31:42;;;;;;;8.07;5.68;;;;;;;10.47;100.00;97404.78;5047086;28;20071;-63
2022/09/02 00:34:09;;;;;;;8.30;6.45;;;;;;;10.32;100.00;97402.66;5048753;28;20044;-63
2022/09/02 00:36:36;;;;;;;7.75;6.07;;;;;;;10.35;100.00;97406.75;5047227;28;20045;-62
2022/09/02 00:39:04;;;;;;;8.98;6.82;;;;;;;10.46;100.00;97410.47;5047035;28;20091;-62
2022/09/02 00:41:31;;;;;;;7.72;5.80;;;;;;;10.41;100.00;97403.03;5047211;28;20041;-62
2022/09/02 00:44:06;;;;;;;7.63;6.28;;;;;;;10.33;100.00;97396.19;5045251;28;20523;-61
2022/09/02 00:46:33;;;;;;;8.82;6.60;;;;;;;10.41;100.00;97398.47;5052238;28;20047;-62
2022/09/02 00:49:02;;;;;;;9.82;6.05;;;;;;;10.46;100.00;97395.03;5036966;28;20052;-61
2022/09/02 00:51:38;;;;;;;6.95;5.85;;;;;;;10.46;100.00;97395.03;5045311;28;20049;-62
2022/09/02 00:54:05;;;;;;;7.15;5.38;;;;;;;10.48;100.00;97398.31;5046906;28;20033;-63
2022/09/02 00:56:32;;;;;;;9.57;5.70;;;;;;;10.52;100.00;97396.75;5046187;28;20053;-62
2022/09/02 00:58:59;;;;;;;7.15;5.57;;;;;;;10.48;100.00;97394.78;5046178;28;20056;-62
2022/09/02 01:01:26;;;;;;;7.03;5.50;;;;;;;10.36;100.00;97400.28;5046813;28;20087;-62
2022/09/02 01:04:02;;;;;;;11.57;5.43;;;;;;;10.38;100.00;97401.66;5049309;28;20044;-62
2022/09/02 01:06:31;;;;;;;10.18;6.07;;;;;;;10.41;100.00;97397.63;5043596;28;20052;-62
2022/09/02 01:09:07;;;;;;;7.93;5.47;;;;;;;10.31;100.00;97397.50;5041071;28;20041;-63
2022/09/02 01:11:46;;;;;;;7.38;5.68;;;;;;;10.41;100.00;97397.63;5045976;28;20044;-62
2022/09/02 01:14:15;;;;;;;7.93;5.68;;;;;;;10.48;100.00;97392.91;5029258;28;20744;-63
2022/09/02 01:16:45;;;;;;;7.65;5.70;;;;;;;10.51;100.00;97388.88;5045386;28;20041;-62
2022/09/02 01:19:39;;;;;;;6.40;5.18;;;;;;;10.31;100.00;97394.81;5043493;28;20060;-63
2022/09/02 01:22:24;;;;;;;9.02;5.72;;;;;;;10.19;100.00;97397.59;5055971;28;20048;-62
2022/09/02 01:24:51;;;;;;;7.43;5.47;;;;;;;10.17;100.00;97384.31;5046688;28;20087;-62
2022/09/02 01:27:20;;;;;;;7.72;6.07;;;;;;;10.21;100.00;97390.06;5045646;28;20389;-62
2022/09/02 01:29:51;;;;;;;7.30;6.10;;;;;;;10.15;100.00;97394.56;5046432;28;20037;-62
2022/09/02 01:32:19;;;;;;;6.88;5.55;;;;;;;10.22;100.00;97397.94;5044747;28;20053;-62
2022/09/02 01:34:46;;;;;;;8.18;4.95;;;;;;;10.15;100.00;97392.66;5052521;28;20037;-62
2022/09/02 01:37:13;;;;;;;7.28;5.47;;;;;;;10.28;100.00;97394.22;5046164;28;20045;-62
2022/09/02 01:39:41;;;;;;;7.30;5.35;;;;;;;10.11;100.00;97393.44;5045081;28;20628;-63
2022/09/02 01:42:08;;;;;;;6.32;5.18;;;;;;;10.15;100.00;97389.16;5044499;28;20094;-63
2022/09/02 01:44:42;;;;;;;7.05;5.38;;;;;;;10.20;100.00;97394.63;5045572;28;20041;-62
2022/09/02 01:47:11;;;;;;;7.55;5.00;;;;;;;10.16;100.00;97393.50;5081509;28;20049;-62
2022/09/02 01:49:38;;;;;;;6.30;5.00;;;;;;;9.92;100.00;97396.41;5062539;28;20033;-62
2022/09/02 01:52:05;;;;;;;6.65;5.28;;;;;;;9.89;100.00;97396.91;5044174;28;20049;-62
2022/09/02 01:54:32;;;;;;;8.85;5.22;;;;;;;9.82;100.00;97388.97;5044121;28;20094;-61
2022/09/02 01:56:59;;;;;;;9.23;5.68;;;;;;;9.74;100.00;97384.75;5043988;28;20052;-63
2022/09/02 01:59:26;;;;;;;6.38;5.10;;;;;;;9.65;100.00;97385.44;5042754;28;20140;-62
2022/09/02 02:01:52;;;;;;;7.30;5.80;;;;;;;9.60;100.00;97387.00;5043994;28;20056;-62
2022/09/02 02:04:21;;;;;;;7.50;5.93;;;;;;;9.56;100.00;97387.72;5048581;28;20037;-63
2022/09/02 02:06:50;;;;;;;10.70;6.47;;;;;;;9.57;100.00;97389.34;5038246;28;20056;-63
2022/09/02 02:09:19;;;;;;;6.65;5.80;;;;;;;9.59;100.00;97387.22;5033889;28;20060;-62
2022/09/02 02:11:45;;;;;;;10.20;5.70;;;;;;;9.51;100.00;97391.13;5042139;28;20234;-62
2022/09/02 02:14:14;;;;;;;8.82;6.00;;;;;;;9.59;100.00;97389.94;5045032;28;20326;-62
2022/09/02 02:16:47;;;;;;;7.60;6.00;;;;;;;9.68;100.00;97388.47;5056280;28;20043;-63
2022/09/02 02:19:14;;;;;;;6.72;5.40;;;;;;;9.78;100.00;97386.97;5045019;28;20451;-62
2022/09/02 02:21:41;;;;;;;8.05;5.18;;;;;;;9.77;100.00;97394.28;5060602;28;20041;-62
2022/09/02 02:24:08;;;;;;;7.95;5.78;;;;;;;9.66;100.00;97387.06;5046105;28;20488;-63
2022/09/02 02:26:35;;;;;;;7.90;6.13;;;;;;;9.47;100.00;97382.72;5045490;28;20053;-62
2022/09/02 02:29:03;;;;;;;9.15;5.95;;;;;;;9.52;100.00;97386.56;5040882;28;20049;-62
2022/09/02 02:31:30;;;;;;;10.73;6.20;;;;;;;9.54;100.00;97376.34;5044575;28;20154;-62
2022/09/02 02:33:58;;;;;;;8.90;6.30;;;;;;;9.60;100.00;97378.06;5083044;28;20475;-62
2022/09/02 02:36:25;;;;;;;7.82;5.60;;;;;;;9.58;100.00;97383.69;5062472;28;20037;-61
2022/09/02 02:38:51;;;;;;;7.22;5.60;;;;;;;9.66;100.00;97374.34;5044810;28;20562;-62
2022/09/02 02:41:19;;;;;;;11.23;5.57;;;;;;;9.59;100.00;97371.00;5045073;28;20048;-62
2022/09/02 02:43:46;;;;;;;8.75;6.65;;;;;;;9.52;100.00;97375.75;5044269;28;20067;-63
2022/09/02 02:46:14;;;;;;;7.43;5.57;;;;;;;9.55;100.00;97362.56;5058568;28;20122;-63
2022/09/02 02:48:41;;;;;;;9.30;5.25;;;;;;;9.60;100.00;97368.06;5064325;28;20056;-63
2022/09/02 02:51:08;;;;;;;7.32;5.47;;;;;;;9.58;100.00;97370.19;5043626;28;20424;-62
2022/09/02 02:53:35;;;;;;;8.35;5.15;;;;;;;9.57;100.00;97370.44;5043250;28;20069;-62
2022/09/02 02:56:04;;;;;;;6.68;5.25;;;;;;;9.56;100.00;97371.50;5040511;28;20037;-62
2022/09/02 02:58:30;;;;;;;7.57;6.18;;;;;;;9.54;100.00;97368.25;5040797;28;20052;-62
2022/09/02 03:00:57;;;;;;;7.57;5.45;;;;;;;9.45;100.00;97363.22;5042494;28;20080;-62
2022/09/02 03:03:24;;;;;;;6.50;5.25;;;;;;;9.31;100.00;97364.59;5045225;28;20461;-63
2022/09/02 03:05:54;;;;;;;8.30;5.97;;;;;;;9.30;100.00;97368.38;5063381;28;20044;-63
2022/09/02 03:08:21;;;;;;;8.30;5.70;;;;;;;9.31;100.00;97367.28;5045258;28;20044;-62
2022/09/02 03:10:52;;;;;;;6.25;5.10;;;;;;;9.37;100.00;97369.03;5060459;28;20041;-62
2022/09/02 03:13:20;;;;;;;6.88;5.25;;;;;;;9.37;100.00;97374.44;5043687;28;20428;-63
2022/09/02 03:15:48;;;;;;;7.25;5.28;;;;;;;9.39;100.00;97358.78;5052765;28;20076;-62
2022/09/02 03:18:16;;;;;;;6.95;5.18;;;;;;;9.33;100.00;97362.47;5050576;28;20037;-63
2022/09/02 03:20:43;;;;;;;8.82;5.47;;;;;;;9.22;100.00;97369.59;5042987;28;20052;-63
2022/09/02 03:23:12;;;;;;;6.85;5.20;;;;;;;9.25;100.00;97371.78;5044922;28;20053;-62
2022/09/02 03:25:43;;;;;;;9.63;5.97;;;;;;;9.11;100.00;97365.88;5042979;28;20049;-62
2022/09/02 03:28:18;;;;;;;9.80;6.10;;;;;;;9.18;100.00;97376.53;5044674;28;20041;-62
2022/09/02 03:30:45;;;;;;;7.72;5.60;;;;;;;9.18;100.00;97371.94;5042774;28;20052;-62
2022/09/02 03:33:14;;;;;;;8.43;6.32;;;;;;;9.13;100.00;97366.44;5047401;28;20068;-62
2022/09/02 03:35:44;;;;;;;7.47;5.50;;;;;;;9.08;100.00;97369.91;5037897;28;20048;-62
2022/09/02 03:38:12;;;;;;;7.53;5.50;;;;;;;8.95;100.00;97365.59;5046810;28;20044;-61
2022/09/02 03:40:39;;;;;;;7.63;5.93;;;;;;;8.96;100.00;97367.22;5047592;28;20544;-62
2022/09/02 03:43:06;;;;;;;9.18;6.03;;;;;;;8.94;100.00;97366.66;5048609;28;20080;-62
2022/09/02 03:45:33;;;;;;;9.75;5.45;;;;;;;8.88;100.00;97364.13;5057253;28;20048;-62
2022/09/02 03:48:03;;;;;;;7.97;5.75;;;;;;;8.73;100.00;97359.25;5074470;28;20047;-62
2022/09/02 03:50:41;;;;;;;8.90;5.82;;;;;;;8.88;100.00;97367.63;5046357;28;20056;-62
2022/09/02 03:53:11;;;;;;;7.85;5.63;;;;;;;8.82;100.00;97365.88;5046247;28;20048;-63
2022/09/02 03:55:48;;;;;;;7.60;6.43;;;;;;;8.85;100.00;97362.72;5063304;28;20509;-62
2022/09/02 03:58:18;;;;;;;7.90;5.85;;;;;;;8.83;100.00;97364.81;5046884;28;20071;-61
2022/09/02 04:00:50;;;;;;;8.25;5.78;;;;;;;8.87;100.00;97365.16;5046761;28;20118;-62
2022/09/02 04:03:17;;;;;;;6.88;5.55;;;;;;;8.94;100.00;97363.13;5046801;28;20060;-63
2022/09/02 04:05:49;;;;;;;7.85;5.93;;;;;;;8.95;100.00;97367.47;5034229;28;20038;-61
2022/09/02 04:08:17;;;;;;;7.63;5.38;;;;;;;8.93;100.00;97366.91;5042490;28;20045;-62
2022/09/02 04:10:45;;;;;;;8.43;5.60;;;;;;;8.88;100.00;97370.31;5045791;28;20091;-62
2022/09/02 04:13:11;;;;;;;8.10;5.55;;;;;;;8.77;100.00;97365.81;5063625;28;20384;-62
2022/09/02 04:15:43;;;;;;;7.50;5.10;;;;;;;8.76;100.00;97364.13;5045405;28;20499;-62
2022/09/02 04:18:11;;;;;;;8.55;5.68;;;;;;;8.75;100.00;97373.31;5041776;28;20052;-62
2022/09/02 04:20:38;;;;;;;7.32;5.50;;;;;;;8.78;100.00;97367.44;5038717;28;20390;-62
2022/09/02 04:23:06;;;;;;;7.95;5.32;;;;;;;8.70;100.00;97363.25;5046401;28;20127;-63
2022/09/02 04:25:42;;;;;;;7.40;5.55;;;;;;;8.68;100.00;97370.75;5046046;28;20363;-62
2022/09/02 04:28:09;;;;;;;7.00;5.43;;;;;;;8.70;100.00;97371.34;5046117;28;20053;-62
2022/09/02 04:30:41;;;;;;;7.32;5.28;;;;;;;8.74;100.00;97367.09;5046839;28;20045;-62
2022/09/02 04:33:09;;;;;;;12.40;6.38;;;;;;;8.81;100.00;97361.56;5046245;28;20041;-62
2022/09/02 04:35:44;;;;;;;7.10;5.50;;;;;;;8.71;100.00;97362.97;5055250;28;20424;-62
2022/09/02 04:38:15;;;;;;;6.85;5.57;;;;;;;8.71;100.00;97360.28;5046171;28;20631;-62
2022/09/02 04:40:44;;;;;;;8.10;5.18;;;;;;;8.54;100.00;97365.63;5044453;28;20071;-63
2022/09/02 04:43:11;;;;;;;7.70;5.07;;;;;;;8.59;100.00;97365.72;5057798;28;20045;-62
2022/09/02 04:45:43;;;;;;;7.43;5.53;;;;;;;8.63;100.00;97366.09;5042655;28;20482;-62
2022/09/02 04:48:10;;;;;;;9.48;5.45;;;;;;;8.73;100.00;97370.84;5045943;28;20071;-62
2022/09/02 04:50:40;;;;;;;6.90;5.32;;;;;;;8.78;100.00;97372.84;5045311;28;20044;-61
2022/09/02 04:53:08;;;;;;;7.68;5.38;;;;;;;8.88;100.00;97373.00;5044742;28;20539;-63
2022/09/02 04:55:38;;;;;;;7.43;5.90;;;;;;;9.06;100.00;97374.72;5044426;28;20039;-63
2022/09/02 04:58:08;;;;;;;9.80;6.00;;;;;;;9.18;100.00;97369.25;5037086;28;20351;-63
2022/09/02 05:00:37;;;;;;;7.45;5.10;;;;;;;9.24;100.00;97371.00;5044693;28;20056;-61
2022/09/02 05:03:06;;;;;;;8.90;5.43;;;;;;;9.22;100.00;97370.41;5042157;28;20047;-63
2022/09/02 05:05:34;;;;;;;7.70;4.78;;;;;;;9.33;100.00;97373.28;5045528;28;20989;-62
2022/09/02 05:08:03;;;;;;;8.20;5.05;;;;;;;9.28;100.00;97363.19;5033722;28;20049;-62
2022/09/02 05:10:31;;;;;;;12.85;6.63;;;;;;;9.35;100.00;97371.97;5032525;28;20060;-62
2022/09/02 05:12:59;;;;;;;7.53;6.45;;;;;;;9.45;100.00;97367.81;5045240;28;20124;-62
2022/09/02 05:15:27;;;;;;;7.22;6.53;;;;;;;9.44;100.00;97366.97;5047453;28;20186;-61
2022/09/02 05:17:54;;;;;;;7.30;5.32;;;;;;;9.48;100.00;97362.72;5044809;28;20083;-62
2022/09/02 05:20:20;;;;;;;7.72;5.95;;;;;;;9.49;100.00;97363.56;5044580;28;20045;-63
2022/09/02 05:22:49;;;;;;;7.60;5.25;;;;;;;9.40;100.00;97363.13;5045287;28;20051;-63
2022/09/02 05:25:16;;;;;;;7.88;5.60;;;;;;;9.48;100.00;97365.44;5043601;28;20160;-63
2022/09/02 05:27:43;;;;;;;7.75;5.82;;;;;;;9.52;100.00;97364.94;5038796;28;20045;-63
2022/09/02 05:30:10;;;;;;;8.40;5.00;;;;;;;9.57;100.00;97363.16;5034156;28;20460;-61
2022/09/02 05:32:39;;;;;;;9.57;5.00;;;;;;;9.58;100.00;97362.06;5025170;28;20398;-62
2022/09/02 05:35:07;;;;;;;7.78;4.70;;;;;;;9.69;100.00;97360.34;5059488;28;20407;-63
2022/09/02 05:37:35;;;;;;;9.27;4.50;;;;;;;9.70;100.00;97358.47;5070470;28;20045;-63
2022/09/02 05:40:04;;;;;;;7.78;4.50;;;;;;;9.67;100.00;97362.50;5040160;28;20405;-63
2022/09/02 05:42:33;;;;;;;6.13;5.00;;;;;;;9.62;100.00;97365.13;5032330;28;20095;-62
2022/09/02 05:45:01;;;;;;;6.22;4.70;;;;;;;9.59;100.00;97360.19;5047622;28;20474;-63
2022/09/02 05:47:27;;;;;;;9.95;5.15;;;;;;;9.59;100.00;97362.91;5064715;28;20074;-63
2022/09/02 05:49:55;;;;;;;6.78;4.72;;;;;;;9.44;100.00;97358.88;5062552;28;20079;-62
2022/09/02 05:52:24;;;;;;;7.22;4.70;;;;;;;9.54;100.00;97365.53;5038605;28;20057;-62
2022/09/02 05:54:54;;;;;;;8.10;5.40;;;;;;;9.68;100.00;97356.03;5036573;28;20037;-61
2022/09/02 05:57:22;;;;;;;7.68;5.15;;;;;;;9.86;100.00;97363.06;5042225;28;20049;-61
2022/09/02 05:59:55;;;;;;;6.78;5.05;;;;;;;9.97;100.00;97368.59;5034565;28;20151;-62
2022/09/02 06:02:26;;;;;;;8.27;5.90;;;;;;;9.96;100.00;97366.97;5025282;28;20087;-63
2022/09/02 06:04:54;;;;;;;8.63;5.13;;;;;;;10.03;100.00;97370.34;5049643;28;20048;-62
2022/09/02 06:07:25;;;;;;;7.45;5.20;;;;;;;10.14;100.00;97368.59;5079952;28;20048;-62
2022/09/02 06:09:52;;;;;;;7.63;4.90;;;;;;;10.26;100.00;97363.06;5062520;28;20530;-65
2022/09/02 06:12:23;;;;;;;7.28;4.60;;;;;;;10.41;100.00;97367.84;5062942;28;20044;-64
2022/09/02 06:14:49;;;;;;;8.68;4.43;;;;;;;10.58;100.00;97359.69;5053731;28;20063;-65
2022/09/02 06:17:18;;;;;;;9.32;4.72;;;;;;;10.74;100.00;97359.88;5081260;28;20147;-64
2022/09/02 06:19:48;;;;;;;6.55;4.65;;;;;;;10.90;100.00;97369.81;5061862;28;20049;-65
2022/09/02 06:22:21;;;;;;;6.97;4.57;;;;;;;11.05;100.00;97361.03;5044375;28;20483;-65
2022/09/02 06:24:48;;;;;;;7.75;5.00;;;;;;;11.21;100.00;97360.38;5044222;28;20104;-64
2022/09/02 06:27:19;;;;;;;8.82;4.65;;;;;;;11.36;100.00;97352.41;5060413;28;20037;-65
2022/09/02 06:29:49;;;;;;;5.80;4.20;;;;;;;11.52;98.43;97350.63;5044439;28;20444;-65
2022/09/02 06:32:19;;;;;;;9.77;4.80;;;;;;;11.66;99.99;97344.75;5044228;28;20057;-64
2022/09/02 06:34:47;;;;;;;6.20;4.30;;;;;;;11.87;97.25;97339.47;5073336;28;20123;-65
2022/09/02 06:37:14;;;;;;;6.78;4.10;;;;;;;12.04;99.07;97355.59;5065699;28;20040;-64
2022/09/02 06:39:43;;;;;;;6.43;4.10;;;;;;;12.17;98.51;97348.91;5080531;28;20556;-65
2022/09/02 06:42:15;;;;;;;7.10;4.50;;;;;;;12.46;94.24;97351.25;5064295;28;20202;-66
2022/09/02 06:45:00;;;;;;;8.18;4.88;;;;;;;12.75;90.48;97357.06;5080218;28;20442;-63
2022/09/02 06:47:27;;;;;;;5.07;3.65;;;;;;;13.11;87.81;97355.50;5063145;28;20447;-65
2022/09/02 06:49:54;;;;;;;8.07;3.22;;;;;;;13.37;86.12;97358.25;5080811;28;20423;-65
2022/09/02 06:52:21;;;;;;;4.45;3.33;;;;;;;13.56;85.26;97360.50;5080493;28;20059;-65
2022/09/02 06:54:49;;;;;;;7.57;3.72;;;;;;;13.72;84.08;97358.59;5044275;28;20041;-65
2022/09/02 06:57:17;;;;;;;7.45;3.50;;;;;;;13.88;83.64;97353.94;5043550;28;20041;-64
2022/09/02 06:59:44;;;;;;;8.68;4.22;;;;;;;13.99;81.53;97355.56;5045545;28;20098;-65
2022/09/02 07:02:11;;;;;;;9.50;3.88;;;;;;;14.17;81.48;97351.47;5043983;28;20045;-65
2022/09/02 07:07:25;;;;;;;7.70;3.40;;;;;;;14.38;79.83;97343.19;5083302;28;20040;-65
2022/09/02 07:09:58;;;;;;;11.55;3.53;;;;;;;14.48;79.93;97342.34;5070992;28;20512;-66
2022/09/02 07:12:26;;;;;;;6.43;3.70;;;;;;;14.57;79.03;97350.78;5064938;28;20098;-65
2022/09/02 07:15:01;;;;;;;5.32;3.30;;;;;;;14.66;77.97;97343.66;5051989;28;20041;-64
2022/09/02 07:17:33;;;;;;;9.07;3.58;;;;;;;14.75;77.19;97338.44;5069455;28;20467;-65
2022/09/02 07:20:04;;;;;;;10.70;3.92;;;;;;;14.83;77.33;97334.34;5042625;28;20140;-62
2022/09/02 07:22:37;;;;;;;4.38;2.92;;;;;;;14.95;75.59;97332.09;5045440;28;20041;-62
2022/09/02 07:25:08;;;;;;;7.22;2.88;;;;;;;15.02;75.74;97329.06;5047145;28;20048;-63
2022/09/02 07:27:35;;;;;;;7.10;3.03;;;;;;;15.12;74.62;97330.91;5047064;28;20132;-62
2022/09/02 07:30:03;;;;;;;9.38;3.45;;;;;;;15.22;75.12;97324.53;5064304;28;20045;-62
2022/09/02 07:32:31;;;;;;;5.22;3.05;;;;;;;15.23;73.55;97328.91;5046640;28;20037;-62
2022/09/02 07:34:57;;;;;;;;;;;;;;;15.24;73.39;97325.09;5030288;28;20390;-63
2022/09/02 07:37:24;;;;;;;;;;;;;;;15.31;73.01;97330.22;5049028;28;19967;-63
2022/09/02 07:39:52;;;;;;;;;;;;;;;15.31;74.04;97330.22;5046785;28;20147;-62
2022/09/02 07:42:19;;;;;;;;;;;;;;;15.37;73.68;97331.00;5047981;28;19920;-62
2022/09/02 07:44:46;;;;;;;;;;;;;;;15.51;73.46;97329.25;5049883;28;19920;-63
2022/09/02 07:47:13;;;;;;;;;;;;;;;15.58;72.99;97326.19;5068451;28;20377;-62
2022/09/02 07:49:43;;;;;;;;;;;;;;;15.70;72.88;97336.75;5084551;28;19920;-63
2022/09/02 07:52:30;;;;;;;;;;;;;;;15.87;72.40;97328.13;5067177;28;19921;-62
2022/09/02 07:54:57;;;;;;;;;;;;;;;15.97;71.96;97330.78;5051759;28;19920;-62
2022/09/02 07:57:23;;;;;;;;;;;;;;;16.03;70.24;97330.75;5046676;28;19931;-63
2022/09/02 07:59:50;;;;;;;;;;;;;;;16.08;70.03;97327.94;5047730;28;19921;-63
2022/09/02 08:02:17;;;;;;;;;;;;;;;16.15;69.75;97322.97;5046372;28;19927;-63
2022/09/02 08:04:45;;;;;;;;;;;;;;;16.20;68.22;97328.38;5063897;28;20299;-63
2022/09/02 08:07:11;;;;;;;;;;;;;;;16.36;67.96;97330.91;5047550;28;19925;-63
2022/09/02 08:09:38;;;;;;;;;;;;;;;16.45;67.85;97329.19;5047945;28;20364;-63
2022/09/02 08:12:04;;;;;;;;;;;;;;;16.56;66.20;97331.78;5048500;28;20362;-63
2022/09/02 08:14:31;;;;;;;;;;;;;;;16.54;65.76;97336.75;5048556;28;19932;-64
2022/09/02 08:16:57;;;;;;;;;;;;;;;16.58;65.92;97337.78;5052037;28;19979;-62
2022/09/02 08:19:24;;;;;;;;;;;;;;;16.66;64.85;97334.38;5047831;28;19920;-63
2022/09/02 08:21:50;;;;;;;;;;;;;;;16.77;65.26;97335.09;5045478;28;20358;-63
2022/09/02 08:24:17;;;;;;;;;;;;;;;16.83;65.35;97327.59;5046605;28;19928;-63
2022/09/02 08:26:43;;;;;;;;;;;;;;;16.94;64.06;97320.91;5032139;28;19933;-60
2022/09/02 08:29:10;;;;;;;;;;;;;;;16.99;63.27;97336.44;5047222;28;20356;-62
2022/09/02 08:31:36;;;;;;;;;;;;;;;16.94;63.11;97340.03;5047312;28;20437;-62
2022/09/02 08:34:03;;;;;;;;;;;;;;;17.06;62.54;97328.69;5048335;28;19920;-64
2022/09/02 08:36:30;;;;;;;;;;;;;;;17.16;62.11;97338.66;5048312;28;20384;-63
2022/09/02 08:38:56;;;;;;;;;;;;;;;17.25;62.58;97336.09;5046936;28;19974;-63
2022/09/02 08:41:22;;;;;;;;;;;;;;;17.42;63.56;97335.53;5047872;28;19929;-62
2022/09/02 08:43:51;;;;;;;;;;;;;;;17.39;60.85;97333.38;5048200;28;19920;-63
2022/09/02 08:46:24;;;;;;;;;;;;;;;17.44;60.62;97329.78;5061734;28;20001;-63
2022/09/02 08:49:08;;;;;;;;;;;;;;;17.54;60.82;97324.94;5068075;28;19920;-63
2022/09/02 08:51:50;;;;;;;;;;;;;;;17.59;61.40;97318.59;5067479;28;19921;-62
2022/09/02 08:54:30;;;;;;;4.20;2.30;;;;;;;17.67;59.73;97320.63;5051494;28;20462;-64
2022/09/02 08:56:57;;;;;;;3.13;2.00;;;;;;;17.76;59.20;97318.00;5047158;28;20041;-63
2022/09/02 08:59:26;;;;;;;4.25;2.10;;;;;;;17.75;58.36;97321.03;5046889;28;20047;-63
2022/09/02 09:02:06;;;;;;;3.45;2.00;;;;;;;17.80;58.52;97320.97;5047239;28;20045;-63
2022/09/02 09:05:05;;;;;;;3.55;1.95;;;;;;;17.87;58.67;97317.84;5047005;28;20199;-63
2022/09/02 09:07:49;;;;;;;7.47;1.80;;;;;;;17.99;58.27;97307.19;5046882;28;20041;-63
2022/09/02 09:10:46;;;;;;;4.47;1.45;;;;;;;18.15;56.99;97299.53;5046467;28;20124;-62
2022/09/02 09:13:34;;;;;;;3.75;1.40;;;;;;;18.10;55.11;97310.59;5047047;28;20052;-63
2022/09/02 09:16:28;;;;;;;4.10;1.77;;;;;;;18.15;55.49;97307.75;5053807;28;20044;-62
2022/09/02 09:19:19;;;;;;;2.58;1.40;;;;;;;18.27;55.17;97310.00;5066877;28;20566;-64
2022/09/02 09:21:46;;;;;;;6.78;1.80;;;;;;;18.24;54.64;97304.31;5066001;28;20052;-63
2022/09/02 09:24:31;;;;;;;4.15;1.70;;;;;;;18.32;54.25;97301.66;5066941;28;20050;-63
2022/09/02 09:26:58;;;;;;;2.97;1.42;;;;;;;18.30;53.74;97289.38;5066384;28;20106;-63
2022/09/02 09:29:25;;;;;;;4.22;1.92;;;;;;;18.48;54.75;97300.53;5065827;28;20484;-63
2022/09/02 09:31:59;;;;;;;4.65;1.60;;;;;;;18.61;54.07;97293.44;5052763;28;20115;-63
2022/09/02 09:34:51;;;;;;;3.45;1.42;;;;;;;18.61;54.37;97291.47;5043715;28;20049;-62
2022/09/02 09:37:56;;;;;;;2.65;1.15;;;;;;;18.77;54.47;97300.22;5044878;28;20041;-64
2022/09/02 09:40:29;;;;;;;2.70;1.40;;;;;;;18.84;49.76;97286.88;5022951;28;20422;-63
2022/09/02 09:42:57;;;;;;;2.17;1.20;;;;;;;18.96;50.42;97282.78;5023531;28;20512;-63
2022/09/02 09:45:33;;;;;;;1.73;1.00;;;;;;;19.11;48.79;97292.63;5042459;28;20088;-62
2022/09/02 09:48:26;;;;;;;1.88;0.95;;;;;;;19.24;48.65;97294.50;5066561;28;20045;-63
2022/09/02 09:50:55;;;;;;;2.72;1.45;;;;;;;19.32;47.40;97292.94;5066215;28;20450;-63
2022/09/02 09:53:23;;;;;;;5.07;1.40;;;;;;;19.40;49.73;97290.56;5057836;28;20071;-63
2022/09/02 09:55:56;;;;;;;3.20;1.20;;;;;;;19.42;47.59;97289.13;5045822;28;20052;-63
2022/09/02 09:58:31;;;;;;;3.42;1.17;;;;;;;19.44;46.18;97284.16;5045058;28;20052;-63
2022/09/02 10:01:09;;;;;;;4.95;1.10;;;;;;;19.54;46.32;97285.84;5046111;28;20048;-64
2022/09/02 10:03:41;;;;;;;2.17;1.00;;;;;;;19.60;45.95;97273.59;5046078;28;20036;-63
2022/09/02 10:06:23;;;;;;;;;;;;;;;19.32;45.56;97276.47;5045938;28;20036;-63
2022/09/02 10:08:55;;;;;;;4.47;1.70;;;;;;;19.54;46.73;97269.38;5045944;28;19920;-62
2022/09/02 10:11:33;;;;;;;2.22;1.10;;;;;;;19.71;46.77;97268.66;5045702;28;20090;-63
2022/09/02 10:14:09;;;;;;;3.63;2.05;;;;;;;19.80;45.60;97263.22;5046156;28;20041;-63
2022/09/02 10:16:55;;;;;;;2.28;1.13;;;;;;;19.87;44.24;97263.53;5063017;28;20044;-63
2022/09/02 10:19:46;;;;;;;3.53;1.10;;;;;;;19.91;44.75;97277.47;5066152;28;20046;-63
2022/09/02 10:22:37;;;;;;;2.13;1.08;;;;;;;19.97;43.91;97265.22;5065151;28;20093;-62
2022/09/02 10:25:33;;;;;;;2.05;1.10;;;;;;;19.99;42.52;97271.25;5026308;28;20077;-62
2022/09/02 10:28:20;;;;;;;2.45;1.00;;;;;;;20.01;42.91;97266.22;5025933;28;20050;-63
2022/09/02 10:31:37;;;;;;;2.55;0.82;;;;;;;20.00;42.56;97258.31;5029175;28;20459;-62
2022/09/02 10:34:09;;;;;;;2.60;1.15;;;;;;;19.94;43.54;97252.09;5041262;28;20136;-63
2022/09/02 10:37:07;;;;;;;2.13;1.00;;;;;;;19.77;42.89;97247.34;5045533;28;20098;-62
2022/09/02 10:40:07;;;;;;;2.47;0.95;;;;;;;19.97;43.65;97253.44;5045363;28;20110;-62
2022/09/02 10:42:45;;;;;;;2.95;1.15;;;;;;;20.07;44.32;97246.84;5049769;28;20037;-61
2022/09/02 10:45:42;;;;;;;2.55;0.90;;;;;;;20.23;42.18;97244.50;5042308;28;20507;-62
2022/09/02 10:48:34;;;;;;;2.05;0.98;;;;;;;20.31;42.55;97231.91;5039580;28;20093;-63
2022/09/02 10:51:32;;;;;;;1.90;1.25;;;;;;;20.33;42.06;97226.88;5047036;28;20512;-62
2022/09/02 10:54:24;;;;;;;2.05;0.90;;;;;;;20.47;41.75;97235.00;5040349;28;20098;-62
2022/09/02 10:57:03;;;;;;;3.17;0.80;;;;;;;20.58;40.03;97233.56;5045891;28;20038;-62
2022/09/02 10:59:48;;;;;;;1.65;0.90;;;;;;;20.70;40.66;97235.69;5046466;28;20257;-63
2022/09/02 11:02:33;;;;;;;2.90;1.05;;;;;;;20.73;39.59;97214.97;5039324;28;20047;-63
2022/09/02 11:05:12;;;;;;;1.30;0.80;;;;;;;20.66;39.34;97215.44;5048951;28;20401;-63
2022/09/02 11:07:48;;;;;;;2.58;1.05;;;;;;;20.64;40.36;97206.72;5046146;28;20037;-63
2022/09/02 11:10:18;;;;;;;3.78;1.00;;;;;;;20.81;40.04;97203.16;5038931;28;20045;-65
2022/09/02 11:12:55;;;;;;;3.05;1.25;;;;;;;20.89;40.58;97199.63;5041540;28;20041;-66
2022/09/02 11:16:00;;;;;;;1.70;0.90;;;;;;;21.11;38.64;97205.28;5046676;28;20049;-66
2022/09/02 11:18:35;;;;;;;5.20;1.10;;;;;;;21.16;38.36;97216.13;5045714;28;20068;-65
2022/09/02 11:21:43;;;;;;;1.55;0.90;;;;;;;21.18;37.69;97202.81;5051524;28;20049;-64
2022/09/02 11:24:30;;;;;;;12.30;2.13;;;;;;;21.21;38.13;97193.91;5018813;28;20053;-65
2022/09/02 11:27:22;;;;;;;2.15;1.30;;;;;;;20.92;37.78;97184.41;5028745;28;20042;-65
2022/09/02 11:30:20;;;;;;;2.53;0.85;;;;;;;21.03;39.13;97198.63;5028969;28;20045;-65
2022/09/02 11:33:12;;;;;;;3.03;0.85;;;;;;;21.21;39.85;97207.69;5045116;28;20480;-65
2022/09/02 11:35:38;;;;;;;3.13;0.80;;;;;;;21.34;37.69;97205.88;5048126;28;20044;-65
2022/09/02 11:38:13;;;;;;;1.88;0.80;;;;;;;21.45;36.23;97198.09;5048751;28;20045;-65
2022/09/02 11:41:14;;;;;;;1.58;0.73;;;;;;;21.53;37.95;97197.22;5048724;28;20041;-64
2022/09/02 11:44:17;;;;;;;1.92;1.00;;;;;;;21.44;38.90;97190.94;5048617;28;20072;-65
2022/09/02 11:47:07;;;;;;;3.05;1.13;;;;;;;21.55;36.84;97178.44;5051050;28;20484;-64
2022/09/02 11:50:09;;;;;;;3.00;1.05;;;;;;;21.71;37.20;97188.94;5036851;28;20123;-65
2022/09/02 11:53:01;;;;;;;2.40;1.10;;;;;;;21.74;38.17;97193.00;5036560;28;20063;-64
2022/09/02 11:55:40;;;;;;;;;;;;;;;21.91;37.69;97194.88;5044034;28;20455;-65
2022/09/02 11:58:11;;;;;;;2.28;0.90;;;;;;;21.89;39.07;97189.69;5042752;28;20344;-65
2022/09/02 12:00:57;;;;;;;4.90;1.80;;;;;;;22.12;40.94;97197.69;5048250;28;20053;-65
2022/09/02 12:03:28;;;;;;;2.40;1.02;;;;;;;22.02;37.14;97182.34;5048304;28;20119;-65
2022/09/02 12:06:17;;;;;;;3.28;0.95;;;;;;;22.05;36.71;97195.47;5046392;28;20055;-64
2022/09/02 12:08:44;;;;;;;1.65;0.80;;;;;;;22.04;36.66;97191.06;5047604;28;20504;-64